Hawabango Airport


Codes: HWA/HWA
Name: Hawabango Airport
City: Hawabango
Country: Papua New Guinea
Elevation: 4563 ft.

Photos at Hawabango Airport


   Photos courtesy of SpottingLog. You can add your own sightings and photos by signing up for a free trial today.



No photos found.

Weather at Hawabango Airport


Time (UTC)DescriptionTempratureWindCloud coverageVisibilityPressureHumidity
15-Apr-2024 18:00Overcast Clouds14°C4 mph, N88%10000m1014hPa95%
15-Apr-2024 21:00Broken Clouds14°C4 mph, N77%10000m1014hPa94%
16-Apr-2024 00:00Light Rain21°C2 mph, NE82%10000m1013hPa63%
16-Apr-2024 03:00Light Rain21°C2 mph, SE86%10000m1010hPa72%
16-Apr-2024 06:00Moderate Rain19°C2 mph, E93%10000m1009hPa83%
16-Apr-2024 09:00Moderate Rain15°C2 mph, NE94%10000m1012hPa97%
16-Apr-2024 12:00Light Rain14°C4 mph, N97%6077m1013hPa97%
16-Apr-2024 15:00Light Rain14°C4 mph, N100%10000m1012hPa96%
16-Apr-2024 18:00Overcast Clouds13°C4 mph, N100%10000m1011hPa96%
16-Apr-2024 21:00Overcast Clouds14°C4 mph, N100%10000m1013hPa94%
17-Apr-2024 00:00Light Rain21°C2 mph, E99%10000m1012hPa68%
17-Apr-2024 03:00Light Rain19°C2 mph, S94%8087m1009hPa79%
17-Apr-2024 06:00Moderate Rain17°C2 mph, S97%5627m1008hPa93%
17-Apr-2024 09:00Moderate Rain15°C2 mph, NE100%2328m1010hPa98%
17-Apr-2024 12:00Heavy Intensity Rain15°C2 mph, NE100%947m1012hPa99%
17-Apr-2024 15:00Moderate Rain14°C4 mph, N100%10000m1011hPa97%
17-Apr-2024 18:00Light Rain14°C4 mph, N100%10000m1010hPa96%
17-Apr-2024 21:00Light Rain14°C4 mph, NE100%10000m1011hPa96%
18-Apr-2024 00:00Overcast Clouds19°C4 mph, NE100%10000m1011hPa74%
18-Apr-2024 03:00Light Rain17°C2 mph, S100%8959m1010hPa89%
18-Apr-2024 06:00Moderate Rain16°C2 mph, SE100%3576m1009hPa96%
18-Apr-2024 09:00Heavy Intensity Rain15°C2 mph, E100%2017m1011hPa99%
18-Apr-2024 12:00Moderate Rain14°C2 mph, NE100%10000m1012hPa96%
18-Apr-2024 15:00Light Rain14°C4 mph, N98%10000m1011hPa96%
18-Apr-2024 18:00Overcast Clouds13°C4 mph, N95%10000m1011hPa96%
18-Apr-2024 21:00Overcast Clouds13°C4 mph, N98%10000m1012hPa94%
19-Apr-2024 00:00Broken Clouds21°C2 mph, SE77%10000m1011hPa63%
19-Apr-2024 03:00Light Rain19°C4 mph, SW90%8821m1009hPa83%
19-Apr-2024 06:00Moderate Rain18°C2 mph, SE93%10000m1009hPa89%
19-Apr-2024 09:00Moderate Rain15°C2 mph, E100%10000m1011hPa98%
19-Apr-2024 12:00Moderate Rain15°C2 mph, NE100%2540m1014hPa99%
19-Apr-2024 15:00Moderate Rain14°C2 mph, N100%7761m1012hPa98%
19-Apr-2024 18:00Light Rain15°C2 mph, NW100%10000m1012hPa97%
19-Apr-2024 21:00Light Rain15°C2 mph, NE100%10000m1013hPa97%
20-Apr-2024 00:00Light Rain20°C2 mph, SE99%10000m1013hPa72%
20-Apr-2024 03:00Light Rain20°C4 mph, S74%10000m1010hPa76%
20-Apr-2024 06:00Moderate Rain18°C2 mph, S82%10000m1010hPa90%
20-Apr-2024 09:00Moderate Rain15°C2 mph, N100%0m1012hPa98%
20-Apr-2024 12:00Light Rain15°C2 mph, E100%3074m1014hPa99%
20-Apr-2024 15:00Light Rain15°C2 mph, NE100%10000m1013hPa96%